sensor_id;sensor_type;location;lat;lon;timestamp;P1;durP1;ratioP1;P2;durP2;ratioP2
74383;SDS011;62824;52.994;-3.936;2023-02-28T00:00:28;11.43;;;6.32;;
74383;SDS011;62824;52.994;-3.936;2023-02-28T00:02:53;8.18;;;5.72;;
74383;SDS011;62824;52.994;-3.936;2023-02-28T00:05:20;9.48;;;6.13;;
74383;SDS011;62824;52.994;-3.936;2023-02-28T00:07:47;9.45;;;5.80;;
74383;SDS011;62824;52.994;-3.936;2023-02-28T00:10:15;12.15;;;6.13;;
74383;SDS011;62824;52.994;-3.936;2023-02-28T00:12:49;7.93;;;5.65;;
74383;SDS011;62824;52.994;-3.936;2023-02-28T00:15:16;7.55;;;5.32;;
74383;SDS011;62824;52.994;-3.936;2023-02-28T00:17:42;7.38;;;5.28;;
74383;SDS011;62824;52.994;-3.936;2023-02-28T00:20:09;7.82;;;5.38;;
74383;SDS011;62824;52.994;-3.936;2023-02-28T00:22:44;8.32;;;5.40;;
74383;SDS011;62824;52.994;-3.936;2023-02-28T00:25:12;11.00;;;5.65;;
74383;SDS011;62824;52.994;-3.936;2023-02-28T00:27:39;9.70;;;5.57;;
74383;SDS011;62824;52.994;-3.936;2023-02-28T00:30:07;8.05;;;5.15;;
74383;SDS011;62824;52.994;-3.936;2023-02-28T00:32:35;7.00;;;4.65;;
74383;SDS011;62824;52.994;-3.936;2023-02-28T00:35:01;7.70;;;4.88;;
74383;SDS011;62824;52.994;-3.936;2023-02-28T00:37:27;7.97;;;5.05;;
74383;SDS011;62824;52.994;-3.936;2023-02-28T00:39:53;10.20;;;4.60;;
74383;SDS011;62824;52.994;-3.936;2023-02-28T00:42:18;8.00;;;4.70;;
74383;SDS011;62824;52.994;-3.936;2023-02-28T00:44:44;8.52;;;5.15;;
74383;SDS011;62824;52.994;-3.936;2023-02-28T00:47:10;8.23;;;4.68;;
74383;SDS011;62824;52.994;-3.936;2023-02-28T00:49:36;5.82;;;4.07;;
74383;SDS011;62824;52.994;-3.936;2023-02-28T00:52:01;6.95;;;4.47;;
74383;SDS011;62824;52.994;-3.936;2023-02-28T00:54:27;7.88;;;5.00;;
74383;SDS011;62824;52.994;-3.936;2023-02-28T00:56:53;8.02;;;4.78;;
74383;SDS011;62824;52.994;-3.936;2023-02-28T00:59:19;7.13;;;4.72;;
74383;SDS011;62824;52.994;-3.936;2023-02-28T01:01:46;7.05;;;4.38;;
74383;SDS011;62824;52.994;-3.936;2023-02-28T01:04:12;7.63;;;4.40;;
74383;SDS011;62824;52.994;-3.936;2023-02-28T01:06:39;8.93;;;5.28;;
74383;SDS011;62824;52.994;-3.936;2023-02-28T01:09:05;9.60;;;5.13;;
74383;SDS011;62824;52.994;-3.936;2023-02-28T01:11:32;7.28;;;4.53;;
74383;SDS011;62824;52.994;-3.936;2023-02-28T01:13:58;7.95;;;4.78;;
74383;SDS011;62824;52.994;-3.936;2023-02-28T01:16:24;8.93;;;4.40;;
74383;SDS011;62824;52.994;-3.936;2023-02-28T01:18:50;7.63;;;4.70;;
74383;SDS011;62824;52.994;-3.936;2023-02-28T01:21:17;9.48;;;5.20;;
74383;SDS011;62824;52.994;-3.936;2023-02-28T01:23:44;10.27;;;5.25;;
74383;SDS011;62824;52.994;-3.936;2023-02-28T01:26:12;8.20;;;3.78;;
74383;SDS011;62824;52.994;-3.936;2023-02-28T01:28:39;6.88;;;4.30;;
74383;SDS011;62824;52.994;-3.936;2023-02-28T01:31:06;7.00;;;3.67;;
74383;SDS011;62824;52.994;-3.936;2023-02-28T01:33:32;7.35;;;3.55;;
74383;SDS011;62824;52.994;-3.936;2023-02-28T01:36:02;6.80;;;3.83;;
74383;SDS011;62824;52.994;-3.936;2023-02-28T01:38:30;6.22;;;3.70;;
74383;SDS011;62824;52.994;-3.936;2023-02-28T01:40:56;6.63;;;3.20;;
74383;SDS011;62824;52.994;-3.936;2023-02-28T01:43:23;5.22;;;3.30;;
74383;SDS011;62824;52.994;-3.936;2023-02-28T01:45:51;6.43;;;3.20;;
74383;SDS011;62824;52.994;-3.936;2023-02-28T01:48:17;5.57;;;2.88;;
74383;SDS011;62824;52.994;-3.936;2023-02-28T01:50:46;6.05;;;2.85;;
74383;SDS011;62824;52.994;-3.936;2023-02-28T01:53:14;3.67;;;2.25;;
74383;SDS011;62824;52.994;-3.936;2023-02-28T01:55:45;3.92;;;2.42;;
74383;SDS011;62824;52.994;-3.936;2023-02-28T01:58:18;3.83;;;2.22;;
74383;SDS011;62824;52.994;-3.936;2023-02-28T02:00:44;5.20;;;2.67;;
74383;SDS011;62824;52.994;-3.936;2023-02-28T02:03:11;6.28;;;3.45;;
74383;SDS011;62824;52.994;-3.936;2023-02-28T02:05:40;5.50;;;3.40;;
74383;SDS011;62824;52.994;-3.936;2023-02-28T02:08:10;6.63;;;3.80;;
74383;SDS011;62824;52.994;-3.936;2023-02-28T02:27:05;8.25;;;4.28;;
74383;SDS011;62824;52.994;-3.936;2023-02-28T02:29:56;9.25;;;4.30;;
74383;SDS011;62824;52.994;-3.936;2023-02-28T02:39:02;9.02;;;4.88;;
74383;SDS011;62824;52.994;-3.936;2023-02-28T02:46:41;6.88;;;4.15;;
74383;SDS011;62824;52.994;-3.936;2023-02-28T02:49:09;9.20;;;4.65;;
74383;SDS011;62824;52.994;-3.936;2023-02-28T02:51:48;9.25;;;4.40;;
74383;SDS011;62824;52.994;-3.936;2023-02-28T02:56:53;7.75;;;3.75;;
74383;SDS011;62824;52.994;-3.936;2023-02-28T02:59:23;5.82;;;3.08;;
74383;SDS011;62824;52.994;-3.936;2023-02-28T03:01:57;6.57;;;3.30;;
74383;SDS011;62824;52.994;-3.936;2023-02-28T03:04:27;6.43;;;3.05;;
74383;SDS011;62824;52.994;-3.936;2023-02-28T03:06:57;6.13;;;3.42;;
74383;SDS011;62824;52.994;-3.936;2023-02-28T03:09:23;5.07;;;2.75;;
74383;SDS011;62824;52.994;-3.936;2023-02-28T03:11:51;6.70;;;3.92;;
74383;SDS011;62824;52.994;-3.936;2023-02-28T03:27:42;4.38;;;2.47;;
74383;SDS011;62824;52.994;-3.936;2023-02-28T03:33:03;5.38;;;2.50;;
74383;SDS011;62824;52.994;-3.936;2023-02-28T03:35:43;3.63;;;2.00;;
74383;SDS011;62824;52.994;-3.936;2023-02-28T03:38:22;2.92;;;1.90;;
74383;SDS011;62824;52.994;-3.936;2023-02-28T03:40:50;5.25;;;2.20;;
74383;SDS011;62824;52.994;-3.936;2023-02-28T03:43:24;3.30;;;2.25;;
74383;SDS011;62824;52.994;-3.936;2023-02-28T03:45:54;3.20;;;2.10;;
74383;SDS011;62824;52.994;-3.936;2023-02-28T03:48:27;5.93;;;2.60;;
74383;SDS011;62824;52.994;-3.936;2023-02-28T03:51:28;3.42;;;2.13;;
74383;SDS011;62824;52.994;-3.936;2023-02-28T03:54:15;3.17;;;1.75;;
74383;SDS011;62824;52.994;-3.936;2023-02-28T03:57:02;3.75;;;1.92;;
74383;SDS011;62824;52.994;-3.936;2023-02-28T03:59:38;4.25;;;2.00;;
74383;SDS011;62824;52.994;-3.936;2023-02-28T04:02:08;2.50;;;1.60;;
74383;SDS011;62824;52.994;-3.936;2023-02-28T04:04:34;2.65;;;1.65;;
74383;SDS011;62824;52.994;-3.936;2023-02-28T04:07:04;5.18;;;1.98;;
74383;SDS011;62824;52.994;-3.936;2023-02-28T04:09:32;3.63;;;2.00;;
74383;SDS011;62824;52.994;-3.936;2023-02-28T04:11:57;4.60;;;1.90;;
74383;SDS011;62824;52.994;-3.936;2023-02-28T04:14:23;5.82;;;1.92;;
74383;SDS011;62824;52.994;-3.936;2023-02-28T04:16:49;3.65;;;1.90;;
74383;SDS011;62824;52.994;-3.936;2023-02-28T04:19:16;4.18;;;2.22;;
74383;SDS011;62824;52.994;-3.936;2023-02-28T04:21:45;4.28;;;2.00;;
74383;SDS011;62824;52.994;-3.936;2023-02-28T04:24:14;3.80;;;1.80;;
74383;SDS011;62824;52.994;-3.936;2023-02-28T04:26:43;4.85;;;2.00;;
74383;SDS011;62824;52.994;-3.936;2023-02-28T04:29:11;4.65;;;2.42;;
74383;SDS011;62824;52.994;-3.936;2023-02-28T04:31:38;3.22;;;2.20;;
74383;SDS011;62824;52.994;-3.936;2023-02-28T04:34:04;5.43;;;2.38;;
74383;SDS011;62824;52.994;-3.936;2023-02-28T04:36:31;6.72;;;2.45;;
74383;SDS011;62824;52.994;-3.936;2023-02-28T04:38:57;4.00;;;2.30;;
74383;SDS011;62824;52.994;-3.936;2023-02-28T04:41:22;5.22;;;2.40;;
74383;SDS011;62824;52.994;-3.936;2023-02-28T04:43:48;5.00;;;2.40;;
74383;SDS011;62824;52.994;-3.936;2023-02-28T04:46:16;5.78;;;2.75;;
74383;SDS011;62824;52.994;-3.936;2023-02-28T04:48:43;3.88;;;2.15;;
74383;SDS011;62824;52.994;-3.936;2023-02-28T04:51:10;5.93;;;2.42;;
74383;SDS011;62824;52.994;-3.936;2023-02-28T04:53:37;4.43;;;2.50;;
74383;SDS011;62824;52.994;-3.936;2023-02-28T04:56:05;5.65;;;2.30;;
74383;SDS011;62824;52.994;-3.936;2023-02-28T04:58:32;4.72;;;2.20;;
74383;SDS011;62824;52.994;-3.936;2023-02-28T05:01:03;4.65;;;2.65;;
74383;SDS011;62824;52.994;-3.936;2023-02-28T05:03:40;4.97;;;2.03;;
74383;SDS011;62824;52.994;-3.936;2023-02-28T05:06:07;2.97;;;1.85;;
74383;SDS011;62824;52.994;-3.936;2023-02-28T05:08:34;3.45;;;2.15;;
74383;SDS011;62824;52.994;-3.936;2023-02-28T05:11:00;2.75;;;2.00;;
74383;SDS011;62824;52.994;-3.936;2023-02-28T05:13:26;5.13;;;2.33;;
74383;SDS011;62824;52.994;-3.936;2023-02-28T05:15:53;3.78;;;1.90;;
74383;SDS011;62824;52.994;-3.936;2023-02-28T05:18:19;4.88;;;2.35;;
74383;SDS011;62824;52.994;-3.936;2023-02-28T05:20:44;4.53;;;2.30;;
74383;SDS011;62824;52.994;-3.936;2023-02-28T05:23:11;4.75;;;2.15;;
74383;SDS011;62824;52.994;-3.936;2023-02-28T05:25:38;2.40;;;1.50;;
74383;SDS011;62824;52.994;-3.936;2023-02-28T05:28:05;2.63;;;1.38;;
74383;SDS011;62824;52.994;-3.936;2023-02-28T05:30:31;6.68;;;1.75;;
74383;SDS011;62824;52.994;-3.936;2023-02-28T05:32:57;2.58;;;1.50;;
74383;SDS011;62824;52.994;-3.936;2023-02-28T05:35:23;5.68;;;1.52;;
74383;SDS011;62824;52.994;-3.936;2023-02-28T05:37:49;2.75;;;1.63;;
74383;SDS011;62824;52.994;-3.936;2023-02-28T05:40:15;2.70;;;1.70;;
74383;SDS011;62824;52.994;-3.936;2023-02-28T05:42:42;3.85;;;1.80;;
74383;SDS011;62824;52.994;-3.936;2023-02-28T05:45:08;6.20;;;1.85;;
74383;SDS011;62824;52.994;-3.936;2023-02-28T05:47:35;4.18;;;1.55;;
74383;SDS011;62824;52.994;-3.936;2023-02-28T05:50:01;3.13;;;1.75;;
74383;SDS011;62824;52.994;-3.936;2023-02-28T05:52:27;2.20;;;1.30;;
74383;SDS011;62824;52.994;-3.936;2023-02-28T05:54:55;3.35;;;1.58;;
74383;SDS011;62824;52.994;-3.936;2023-02-28T05:57:21;2.28;;;1.10;;
74383;SDS011;62824;52.994;-3.936;2023-02-28T05:59:47;1.95;;;0.90;;
74383;SDS011;62824;52.994;-3.936;2023-02-28T06:02:13;4.30;;;1.00;;
74383;SDS011;62824;52.994;-3.936;2023-02-28T06:04:40;1.42;;;0.70;;
74383;SDS011;62824;52.994;-3.936;2023-02-28T06:07:07;1.65;;;1.00;;
74383;SDS011;62824;52.994;-3.936;2023-02-28T06:09:33;4.60;;;0.77;;
74383;SDS011;62824;52.994;-3.936;2023-02-28T06:11:59;1.27;;;0.80;;
74383;SDS011;62824;52.994;-3.936;2023-02-28T06:14:27;2.90;;;0.68;;
74383;SDS011;62824;52.994;-3.936;2023-02-28T06:16:53;2.22;;;0.57;;
74383;SDS011;62824;52.994;-3.936;2023-02-28T06:19:19;1.58;;;0.70;;
74383;SDS011;62824;52.994;-3.936;2023-02-28T06:21:48;0.95;;;0.65;;
74383;SDS011;62824;52.994;-3.936;2023-02-28T06:24:15;1.77;;;0.63;;
74383;SDS011;62824;52.994;-3.936;2023-02-28T06:26:41;0.70;;;0.70;;
74383;SDS011;62824;52.994;-3.936;2023-02-28T06:29:07;0.77;;;0.70;;
74383;SDS011;62824;52.994;-3.936;2023-02-28T06:31:32;1.35;;;0.70;;
74383;SDS011;62824;52.994;-3.936;2023-02-28T06:33:58;2.20;;;1.00;;
74383;SDS011;62824;52.994;-3.936;2023-02-28T06:36:24;1.17;;;0.80;;
74383;SDS011;62824;52.994;-3.936;2023-02-28T06:38:50;1.45;;;0.77;;
74383;SDS011;62824;52.994;-3.936;2023-02-28T06:41:19;1.55;;;0.80;;
74383;SDS011;62824;52.994;-3.936;2023-02-28T06:43:47;2.03;;;0.82;;
74383;SDS011;62824;52.994;-3.936;2023-02-28T06:46:13;3.00;;;0.93;;
74383;SDS011;62824;52.994;-3.936;2023-02-28T06:48:39;1.13;;;0.80;;
74383;SDS011;62824;52.994;-3.936;2023-02-28T06:51:10;1.42;;;0.70;;
74383;SDS011;62824;52.994;-3.936;2023-02-28T06:56:05;1.55;;;0.70;;
74383;SDS011;62824;52.994;-3.936;2023-02-28T06:58:33;1.88;;;1.63;;
74383;SDS011;62824;52.994;-3.936;2023-02-28T07:00:59;2.17;;;0.90;;
74383;SDS011;62824;52.994;-3.936;2023-02-28T07:03:26;2.15;;;0.90;;
74383;SDS011;62824;52.994;-3.936;2023-02-28T07:05:52;5.25;;;1.20;;
74383;SDS011;62824;52.994;-3.936;2023-02-28T07:08:18;2.20;;;0.98;;
74383;SDS011;62824;52.994;-3.936;2023-02-28T07:10:44;4.47;;;1.40;;
74383;SDS011;62824;52.994;-3.936;2023-02-28T07:13:10;4.20;;;1.45;;
74383;SDS011;62824;52.994;-3.936;2023-02-28T07:15:36;2.97;;;1.52;;
74383;SDS011;62824;52.994;-3.936;2023-02-28T07:18:02;3.47;;;1.60;;
74383;SDS011;62824;52.994;-3.936;2023-02-28T07:20:29;3.40;;;1.75;;
74383;SDS011;62824;52.994;-3.936;2023-02-28T07:22:55;3.55;;;1.52;;
74383;SDS011;62824;52.994;-3.936;2023-02-28T07:25:25;3.17;;;1.65;;
74383;SDS011;62824;52.994;-3.936;2023-02-28T07:27:53;4.07;;;2.00;;
74383;SDS011;62824;52.994;-3.936;2023-02-28T07:30:19;3.65;;;2.03;;
74383;SDS011;62824;52.994;-3.936;2023-02-28T07:32:45;4.40;;;2.00;;
74383;SDS011;62824;52.994;-3.936;2023-02-28T07:35:11;4.20;;;1.90;;
74383;SDS011;62824;52.994;-3.936;2023-02-28T07:37:36;3.78;;;2.20;;
74383;SDS011;62824;52.994;-3.936;2023-02-28T07:40:06;3.83;;;1.85;;
74383;SDS011;62824;52.994;-3.936;2023-02-28T07:42:36;2.70;;;1.75;;
74383;SDS011;62824;52.994;-3.936;2023-02-28T07:45:03;5.28;;;1.90;;
74383;SDS011;62824;52.994;-3.936;2023-02-28T07:47:31;2.47;;;1.70;;
74383;SDS011;62824;52.994;-3.936;2023-02-28T07:49:57;4.00;;;1.98;;
74383;SDS011;62824;52.994;-3.936;2023-02-28T07:52:23;2.97;;;1.83;;
74383;SDS011;62824;52.994;-3.936;2023-02-28T07:54:49;3.03;;;1.75;;
74383;SDS011;62824;52.994;-3.936;2023-02-28T07:57:15;3.38;;;1.90;;
74383;SDS011;62824;52.994;-3.936;2023-02-28T07:59:41;4.20;;;3.28;;
74383;SDS011;62824;52.994;-3.936;2023-02-28T08:02:14;3.30;;;1.65;;
74383;SDS011;62824;52.994;-3.936;2023-02-28T08:04:41;6.25;;;2.10;;
74383;SDS011;62824;52.994;-3.936;2023-02-28T08:07:07;4.40;;;1.70;;
74383;SDS011;62824;52.994;-3.936;2023-02-28T08:09:33;2.63;;;1.60;;
74383;SDS011;62824;52.994;-3.936;2023-02-28T08:12:00;3.28;;;1.80;;
74383;SDS011;62824;52.994;-3.936;2023-02-28T08:14:26;2.75;;;1.35;;
74383;SDS011;62824;52.994;-3.936;2023-02-28T08:16:51;4.07;;;1.73;;
74383;SDS011;62824;52.994;-3.936;2023-02-28T08:19:17;8.98;;;4.07;;
74383;SDS011;62824;52.994;-3.936;2023-02-28T08:21:43;3.22;;;1.70;;
74383;SDS011;62824;52.994;-3.936;2023-02-28T08:24:08;4.55;;;1.50;;
74383;SDS011;62824;52.994;-3.936;2023-02-28T08:26:34;4.45;;;2.13;;
74383;SDS011;62824;52.994;-3.936;2023-02-28T08:29:00;4.93;;;1.60;;
74383;SDS011;62824;52.994;-3.936;2023-02-28T08:31:26;3.67;;;1.35;;
74383;SDS011;62824;52.994;-3.936;2023-02-28T08:33:52;4.25;;;2.08;;
74383;SDS011;62824;52.994;-3.936;2023-02-28T08:36:20;1.67;;;1.00;;
74383;SDS011;62824;52.994;-3.936;2023-02-28T08:38:46;1.63;;;1.10;;
74383;SDS011;62824;52.994;-3.936;2023-02-28T08:41:12;2.22;;;1.23;;
74383;SDS011;62824;52.994;-3.936;2023-02-28T08:43:38;3.63;;;1.30;;
74383;SDS011;62824;52.994;-3.936;2023-02-28T08:46:05;2.30;;;1.35;;
74383;SDS011;62824;52.994;-3.936;2023-02-28T08:48:32;2.40;;;1.13;;
74383;SDS011;62824;52.994;-3.936;2023-02-28T08:51:06;3.03;;;1.20;;
74383;SDS011;62824;52.994;-3.936;2023-02-28T08:53:37;2.08;;;1.08;;
74383;SDS011;62824;52.994;-3.936;2023-02-28T09:01:11;1.23;;;0.77;;
74383;SDS011;62824;52.994;-3.936;2023-02-28T09:03:41;24.17;;;11.98;;
74383;SDS011;62824;52.994;-3.936;2023-02-28T09:06:08;1.38;;;1.00;;
74383;SDS011;62824;52.994;-3.936;2023-02-28T09:08:35;2.10;;;1.10;;
74383;SDS011;62824;52.994;-3.936;2023-02-28T09:11:01;1.58;;;0.90;;
74383;SDS011;62824;52.994;-3.936;2023-02-28T09:13:28;3.13;;;0.93;;
74383;SDS011;62824;52.994;-3.936;2023-02-28T09:15:56;2.08;;;0.80;;
74383;SDS011;62824;52.994;-3.936;2023-02-28T09:18:26;1.27;;;1.00;;
74383;SDS011;62824;52.994;-3.936;2023-02-28T09:20:52;5.10;;;1.25;;
74383;SDS011;62824;52.994;-3.936;2023-02-28T09:23:18;1.88;;;0.90;;
74383;SDS011;62824;52.994;-3.936;2023-02-28T09:25:48;1.27;;;0.85;;
74383;SDS011;62824;52.994;-3.936;2023-02-28T09:28:16;4.07;;;2.03;;
74383;SDS011;62824;52.994;-3.936;2023-02-28T09:30:44;1.27;;;0.60;;
74383;SDS011;62824;52.994;-3.936;2023-02-28T09:33:11;3.30;;;1.05;;
74383;SDS011;62824;52.994;-3.936;2023-02-28T09:35:38;1.00;;;0.90;;
74383;SDS011;62824;52.994;-3.936;2023-02-28T09:38:04;2.45;;;1.20;;
74383;SDS011;62824;52.994;-3.936;2023-02-28T09:40:34;0.85;;;0.60;;
74383;SDS011;62824;52.994;-3.936;2023-02-28T09:43:10;4.03;;;2.20;;
74383;SDS011;62824;52.994;-3.936;2023-02-28T09:45:40;0.93;;;0.60;;
74383;SDS011;62824;52.994;-3.936;2023-02-28T09:48:16;2.25;;;0.85;;
74383;SDS011;62824;52.994;-3.936;2023-02-28T09:50:51;1.70;;;0.80;;
74383;SDS011;62824;52.994;-3.936;2023-02-28T09:53:28;2.38;;;1.02;;
74383;SDS011;62824;52.994;-3.936;2023-02-28T09:56:02;1.40;;;0.98;;
74383;SDS011;62824;52.994;-3.936;2023-02-28T09:58:58;1.80;;;1.20;;
74383;SDS011;62824;52.994;-3.936;2023-02-28T10:04:47;1.70;;;1.10;;
74383;SDS011;62824;52.994;-3.936;2023-02-28T10:09:55;1.10;;;0.80;;
74383;SDS011;62824;52.994;-3.936;2023-02-28T10:12:25;0.98;;;0.70;;
74383;SDS011;62824;52.994;-3.936;2023-02-28T10:14:52;0.95;;;0.63;;
74383;SDS011;62824;52.994;-3.936;2023-02-28T10:17:20;1.10;;;0.80;;
74383;SDS011;62824;52.994;-3.936;2023-02-28T10:25:53;0.75;;;0.50;;
74383;SDS011;62824;52.994;-3.936;2023-02-28T10:28:22;1.02;;;0.60;;
74383;SDS011;62824;52.994;-3.936;2023-02-28T10:30:50;1.30;;;0.60;;
74383;SDS011;62824;52.994;-3.936;2023-02-28T10:33:25;0.50;;;0.50;;
74383;SDS011;62824;52.994;-3.936;2023-02-28T10:35:56;0.65;;;0.50;;
74383;SDS011;62824;52.994;-3.936;2023-02-28T10:38:23;1.00;;;0.40;;
74383;SDS011;62824;52.994;-3.936;2023-02-28T10:40:51;0.75;;;0.60;;
74383;SDS011;62824;52.994;-3.936;2023-02-28T10:43:27;2.00;;;1.00;;
74383;SDS011;62824;52.994;-3.936;2023-02-28T10:48:33;0.43;;;0.43;;
74383;SDS011;62824;52.994;-3.936;2023-02-28T10:50:59;0.88;;;0.70;;
74383;SDS011;62824;52.994;-3.936;2023-02-28T10:53:30;0.88;;;0.60;;
74383;SDS011;62824;52.994;-3.936;2023-02-28T10:56:06;2.38;;;0.68;;
74383;SDS011;62824;52.994;-3.936;2023-02-28T10:58:49;0.65;;;0.63;;
74383;SDS011;62824;52.994;-3.936;2023-02-28T11:01:16;2.22;;;1.00;;
74383;SDS011;62824;52.994;-3.936;2023-02-28T11:07:01;1.13;;;0.55;;
74383;SDS011;62824;52.994;-3.936;2023-02-28T11:12:00;2.67;;;0.65;;
74383;SDS011;62824;52.994;-3.936;2023-02-28T11:14:28;1.25;;;0.70;;
74383;SDS011;62824;52.994;-3.936;2023-02-28T11:17:03;1.92;;;0.90;;
74383;SDS011;62824;52.994;-3.936;2023-02-28T11:22:11;1.15;;;0.50;;
74383;SDS011;62824;52.994;-3.936;2023-02-28T11:24:44;3.75;;;0.70;;
74383;SDS011;62824;52.994;-3.936;2023-02-28T11:27:24;0.63;;;0.40;;
74383;SDS011;62824;52.994;-3.936;2023-02-28T11:29:51;0.95;;;0.50;;
74383;SDS011;62824;52.994;-3.936;2023-02-28T11:32:23;1.70;;;0.63;;
74383;SDS011;62824;52.994;-3.936;2023-02-28T11:35:04;0.40;;;0.40;;
74383;SDS011;62824;52.994;-3.936;2023-02-28T11:37:42;0.35;;;0.32;;
74383;SDS011;62824;52.994;-3.936;2023-02-28T11:40:16;2.28;;;0.57;;
74383;SDS011;62824;52.994;-3.936;2023-02-28T11:48:27;2.10;;;0.63;;
74383;SDS011;62824;52.994;-3.936;2023-02-28T11:51:14;0.82;;;0.68;;
74383;SDS011;62824;52.994;-3.936;2023-02-28T11:54:14;0.93;;;0.55;;
74383;SDS011;62824;52.994;-3.936;2023-02-28T11:56:57;1.77;;;0.50;;
74383;SDS011;62824;52.994;-3.936;2023-02-28T12:02:20;0.47;;;0.47;;
74383;SDS011;62824;52.994;-3.936;2023-02-28T12:05:01;0.40;;;0.40;;
74383;SDS011;62824;52.994;-3.936;2023-02-28T12:21:17;1.00;;;0.30;;
74383;SDS011;62824;52.994;-3.936;2023-02-28T12:24:06;0.30;;;0.30;;
74383;SDS011;62824;52.994;-3.936;2023-02-28T12:26:56;0.40;;;0.40;;
74383;SDS011;62824;52.994;-3.936;2023-02-28T12:29:34;1.00;;;0.30;;
74383;SDS011;62824;52.994;-3.936;2023-02-28T12:32:16;1.58;;;0.68;;
74383;SDS011;62824;52.994;-3.936;2023-02-28T12:34:58;0.38;;;0.30;;
74383;SDS011;62824;52.994;-3.936;2023-02-28T12:37:33;0.40;;;0.40;;
74383;SDS011;62824;52.994;-3.936;2023-02-28T12:40:00;0.60;;;0.30;;
74383;SDS011;62824;52.994;-3.936;2023-02-28T12:42:36;0.30;;;0.30;;
74383;SDS011;62824;52.994;-3.936;2023-02-28T12:45:20;1.13;;;0.30;;
74383;SDS011;62824;52.994;-3.936;2023-02-28T12:47:57;0.25;;;0.25;;
74383;SDS011;62824;52.994;-3.936;2023-02-28T12:50:27;0.25;;;0.20;;
74383;SDS011;62824;52.994;-3.936;2023-02-28T12:58:39;1.65;;;0.80;;
74383;SDS011;62824;52.994;-3.936;2023-02-28T13:07:02;0.47;;;0.47;;
74383;SDS011;62824;52.994;-3.936;2023-02-28T13:09:59;0.65;;;0.52;;
74383;SDS011;62824;52.994;-3.936;2023-02-28T13:12:28;0.88;;;0.70;;
74383;SDS011;62824;52.994;-3.936;2023-02-28T13:17:48;1.35;;;0.50;;
74383;SDS011;62824;52.994;-3.936;2023-02-28T13:20:15;0.68;;;0.50;;
74383;SDS011;62824;52.994;-3.936;2023-02-28T13:22:44;1.10;;;0.77;;
74383;SDS011;62824;52.994;-3.936;2023-02-28T13:27:59;2.30;;;0.60;;
74383;SDS011;62824;52.994;-3.936;2023-02-28T13:33:30;1.30;;;0.50;;
74383;SDS011;62824;52.994;-3.936;2023-02-28T13:38:46;1.00;;;0.90;;
74383;SDS011;62824;52.994;-3.936;2023-02-28T13:51:52;2.65;;;1.17;;
74383;SDS011;62824;52.994;-3.936;2023-02-28T14:05:36;0.93;;;0.60;;
74383;SDS011;62824;52.994;-3.936;2023-02-28T14:08:06;4.72;;;1.45;;
74383;SDS011;62824;52.994;-3.936;2023-02-28T14:10:44;2.53;;;1.42;;
74383;SDS011;62824;52.994;-3.936;2023-02-28T14:16:10;0.73;;;0.50;;
74383;SDS011;62824;52.994;-3.936;2023-02-28T14:18:40;2.92;;;0.65;;
74383;SDS011;62824;52.994;-3.936;2023-02-28T14:24:01;4.47;;;1.30;;
74383;SDS011;62824;52.994;-3.936;2023-02-28T14:32:43;2.72;;;1.38;;
74383;SDS011;62824;52.994;-3.936;2023-02-28T14:38:05;3.90;;;1.30;;
74383;SDS011;62824;52.994;-3.936;2023-02-28T14:40:37;3.90;;;1.33;;
74383;SDS011;62824;52.994;-3.936;2023-02-28T14:43:04;2.50;;;1.25;;
74383;SDS011;62824;52.994;-3.936;2023-02-28T14:45:43;2.13;;;1.20;;
74383;SDS011;62824;52.994;-3.936;2023-02-28T14:48:15;3.40;;;1.20;;
74383;SDS011;62824;52.994;-3.936;2023-02-28T14:50:47;3.17;;;1.60;;
74383;SDS011;62824;52.994;-3.936;2023-02-28T14:53:18;6.03;;;1.63;;
74383;SDS011;62824;52.994;-3.936;2023-02-28T14:55:46;3.05;;;1.25;;
74383;SDS011;62824;52.994;-3.936;2023-02-28T14:58:21;1.88;;;1.42;;
74383;SDS011;62824;52.994;-3.936;2023-02-28T15:00:50;7.68;;;1.70;;
74383;SDS011;62824;52.994;-3.936;2023-02-28T15:03:19;3.85;;;1.58;;
74383;SDS011;62824;52.994;-3.936;2023-02-28T15:06:00;3.38;;;1.30;;
74383;SDS011;62824;52.994;-3.936;2023-02-28T15:08:29;2.05;;;1.20;;
74383;SDS011;62824;52.994;-3.936;2023-02-28T15:11:01;4.13;;;1.30;;
74383;SDS011;62824;52.994;-3.936;2023-02-28T15:13:52;3.25;;;1.52;;
74383;SDS011;62824;52.994;-3.936;2023-02-28T15:16:26;4.53;;;1.52;;
74383;SDS011;62824;52.994;-3.936;2023-02-28T15:18:57;2.17;;;1.40;;
74383;SDS011;62824;52.994;-3.936;2023-02-28T15:21:30;3.05;;;2.63;;
74383;SDS011;62824;52.994;-3.936;2023-02-28T15:26:30;8.90;;;2.47;;
74383;SDS011;62824;52.994;-3.936;2023-02-28T15:29:11;3.83;;;2.17;;
74383;SDS011;62824;52.994;-3.936;2023-02-28T15:34:52;6.90;;;3.45;;
74383;SDS011;62824;52.994;-3.936;2023-02-28T15:40:10;3.15;;;1.85;;
74383;SDS011;62824;52.994;-3.936;2023-02-28T15:45:36;3.97;;;2.20;;
74383;SDS011;62824;52.994;-3.936;2023-02-28T15:50:51;4.10;;;2.13;;
74383;SDS011;62824;52.994;-3.936;2023-02-28T15:53:25;7.05;;;2.58;;
74383;SDS011;62824;52.994;-3.936;2023-02-28T15:56:05;5.25;;;2.67;;
74383;SDS011;62824;52.994;-3.936;2023-02-28T15:58:43;10.45;;;4.15;;
74383;SDS011;62824;52.994;-3.936;2023-02-28T16:03:50;2.70;;;1.60;;
74383;SDS011;62824;52.994;-3.936;2023-02-28T16:08:59;4.88;;;2.22;;
74383;SDS011;62824;52.994;-3.936;2023-02-28T16:11:25;4.20;;;1.85;;
74383;SDS011;62824;52.994;-3.936;2023-02-28T16:13:51;4.53;;;1.75;;
74383;SDS011;62824;52.994;-3.936;2023-02-28T16:16:21;8.18;;;2.97;;
74383;SDS011;62824;52.994;-3.936;2023-02-28T16:18:49;13.23;;;5.55;;
74383;SDS011;62824;52.994;-3.936;2023-02-28T16:21:16;10.00;;;4.80;;
74383;SDS011;62824;52.994;-3.936;2023-02-28T16:23:41;4.13;;;2.10;;
74383;SDS011;62824;52.994;-3.936;2023-02-28T16:26:07;7.80;;;3.60;;
74383;SDS011;62824;52.994;-3.936;2023-02-28T16:28:35;5.55;;;2.50;;
74383;SDS011;62824;52.994;-3.936;2023-02-28T16:31:04;7.82;;;3.10;;
74383;SDS011;62824;52.994;-3.936;2023-02-28T16:33:32;10.57;;;3.63;;
74383;SDS011;62824;52.994;-3.936;2023-02-28T16:35:59;8.05;;;3.90;;
74383;SDS011;62824;52.994;-3.936;2023-02-28T16:38:25;5.30;;;3.17;;
74383;SDS011;62824;52.994;-3.936;2023-02-28T16:40:51;7.68;;;4.43;;
74383;SDS011;62824;52.994;-3.936;2023-02-28T16:43:22;5.03;;;3.00;;
74383;SDS011;62824;52.994;-3.936;2023-02-28T16:45:53;6.38;;;2.60;;
74383;SDS011;62824;52.994;-3.936;2023-02-28T16:48:21;5.43;;;2.53;;
74383;SDS011;62824;52.994;-3.936;2023-02-28T16:50:47;5.22;;;3.45;;
74383;SDS011;62824;52.994;-3.936;2023-02-28T16:53:13;3.78;;;2.50;;
74383;SDS011;62824;52.994;-3.936;2023-02-28T16:55:39;4.70;;;3.53;;
74383;SDS011;62824;52.994;-3.936;2023-02-28T16:58:05;9.50;;;5.13;;
74383;SDS011;62824;52.994;-3.936;2023-02-28T17:00:31;5.28;;;3.28;;
74383;SDS011;62824;52.994;-3.936;2023-02-28T17:02:57;5.68;;;3.30;;
74383;SDS011;62824;52.994;-3.936;2023-02-28T17:05:27;5.38;;;2.80;;
74383;SDS011;62824;52.994;-3.936;2023-02-28T17:08:03;13.50;;;6.63;;
74383;SDS011;62824;52.994;-3.936;2023-02-28T17:10:29;6.80;;;3.42;;
74383;SDS011;62824;52.994;-3.936;2023-02-28T17:12:55;8.80;;;3.55;;
74383;SDS011;62824;52.994;-3.936;2023-02-28T17:15:20;9.07;;;2.90;;
74383;SDS011;62824;52.994;-3.936;2023-02-28T17:17:47;10.20;;;2.95;;
74383;SDS011;62824;52.994;-3.936;2023-02-28T17:20:14;4.82;;;2.28;;
74383;SDS011;62824;52.994;-3.936;2023-02-28T17:22:47;7.00;;;3.75;;
74383;SDS011;62824;52.994;-3.936;2023-02-28T17:25:13;8.90;;;3.90;;
74383;SDS011;62824;52.994;-3.936;2023-02-28T17:27:39;7.18;;;3.75;;
74383;SDS011;62824;52.994;-3.936;2023-02-28T17:30:24;4.53;;;2.30;;
74383;SDS011;62824;52.994;-3.936;2023-02-28T17:32:52;10.65;;;5.82;;
74383;SDS011;62824;52.994;-3.936;2023-02-28T17:35:18;5.28;;;3.20;;
74383;SDS011;62824;52.994;-3.936;2023-02-28T17:37:44;5.70;;;2.40;;
74383;SDS011;62824;52.994;-3.936;2023-02-28T17:40:17;8.00;;;4.32;;
74383;SDS011;62824;52.994;-3.936;2023-02-28T17:42:45;9.80;;;3.80;;
74383;SDS011;62824;52.994;-3.936;2023-02-28T17:45:11;4.95;;;2.50;;